Decoded Metar for YPGV (GOVE AIRPORT in AUSTRALIA) (IATA:N/A) | Meteo·Mobile Aviation Weather
aviador You're here:

YPGV Decoded Metar

GOVE AIRPORT in AUSTRALIA
Report Time2019-02-22 14:00:00
UTC Time2019-02-22 14:29:36
Flight Rules vfr VFR
Wind310° at 06 kt
W.Decomp.*RWY 31: 6.0 kt HW 0.4 kt LCW
W.Rank310° ranks 12
Current wind is below 310° avg. (6.7)
Visibility9999 m
Phenomena:N/A
Clouds:N/A
Expected CloudBase > 1,200 ft AGL from Temp-Dew spread
CeilingNone
Temp27°C (ISA +12)
Dew Point24°C (84% RH)
Heat Index30.1°C
QNH1008 hPa
Density Alt2,165 ft
Elevation180 ft
Report Wrong Elevation
Raw Report
YPGV 221400Z AUTO 31006KT 9999 // NCD 27/24 Q1008=

Extra information for YPGV:More info

Metar Taf Metar & Taf Last 4 Metars F.Rules Stats Wind Profile Meteogram Temp Stats Airport Information Weather charts Add Link Nearby VenuesMetar ALERT Operation Metar Decoded Social comments